Pagrindinis puslapis
METAR-TAF:

METAR-TAF

Oro uostai :

Asaluyeh, Iranas

platuma: 27-22-46N, ilguma: 52-44-15E, Aukštis: 8 m

Dabartinis oras

Ataskaita buvo paskelbta 17 minutes, ne 04:00 UTC
Vėjas 4 kt iš Pietryčių
Temperatūra 24°C
Drėgmė 61%
Slėgis 1012 hPa
Matomumas: 2800 m
migla

METAR: OIBP 210400Z 13004KT 6000 2800SE HZ NSC 24/16 Q1012 A2989

Laikas: 07:47 (04:17 UTC)


TAF: trūkstamas

Orai ataskaitas ir orų prognozės (METAR, TAF).

turimą stotys yra geltonos ir raudonos taškus žemėlapyje.

Perkelti pele per norėdami pamatyti stoties vardą.

Tada spustelėkite, norėdami matyti oro stebėjimo ir prognozės.

Norėdami pakeisti žemėlapį: spustelėkite ant žalios mygtukų su juodo kryžiaus žemyn,; žalią mygtuką su brūkšneliu, jei norite nutolinti; arba žalių rodyklių gretimoms žemėlapius.


METAR-TAF: